createdAt,value
2019-06-18T00:00:10.774Z,6.50
2019-06-18T00:02:40.233Z,6.50
2019-06-18T00:05:07.182Z,6.73
2019-06-18T00:07:33.754Z,6.67
2019-06-18T00:10:01.239Z,6.23
2019-06-18T00:12:30.840Z,6.27
2019-06-18T00:14:56.790Z,7.07
2019-06-18T00:17:23.353Z,6.37
2019-06-18T00:19:50.582Z,6.30
2019-06-18T00:22:17.746Z,6.10
2019-06-18T00:24:44.296Z,6.07
2019-06-18T00:27:10.954Z,6.57
2019-06-18T00:29:37.522Z,5.67
2019-06-18T00:32:05.058Z,5.90
2019-06-18T00:34:31.691Z,5.60
2019-06-18T00:37:00.768Z,6.20
2019-06-18T00:39:28.317Z,6.50
2019-06-18T00:41:55.033Z,6.37
2019-06-18T00:44:21.702Z,6.57
2019-06-18T00:46:49.042Z,5.67
2019-06-18T00:49:17.550Z,6.20
2019-06-18T00:51:44.352Z,6.23
2019-06-18T00:54:11.042Z,6.83
2019-06-18T00:56:37.580Z,7.03
2019-06-18T00:59:04.152Z,6.83
2019-06-18T01:01:30.780Z,6.10
2019-06-18T01:03:57.351Z,6.87
2019-06-18T01:06:24.015Z,7.10
2019-06-18T01:08:50.581Z,7.03
2019-06-18T01:11:17.121Z,6.63
2019-06-18T01:13:43.848Z,7.30
2019-06-18T01:16:19.770Z,7.40
2019-06-18T01:18:38.726Z,6.90
2019-06-18T01:21:07.546Z,7.00
2019-06-18T01:23:33.628Z,7.47
2019-06-18T01:26:02.447Z,7.27
2019-06-18T01:28:28.542Z,7.03
2019-06-18T01:30:55.190Z,6.67
2019-06-18T01:33:22.911Z,6.97
2019-06-18T01:35:52.673Z,7.10
2019-06-18T01:38:18.860Z,8.53
2019-06-18T01:40:45.491Z,7.50
2019-06-18T01:43:12.469Z,8.03
2019-06-18T01:45:39.197Z,7.30
2019-06-18T01:48:05.826Z,8.30
2019-06-18T01:50:33.071Z,7.57
2019-06-18T01:53:00.321Z,7.60
2019-06-18T01:55:26.989Z,8.03
2019-06-18T01:57:53.725Z,7.80
2019-06-18T02:00:23.460Z,7.47
2019-06-18T02:02:53.959Z,8.60
2019-06-18T02:05:20.093Z,8.33
2019-06-18T02:07:48.327Z,8.40
2019-06-18T02:10:16.180Z,8.23
2019-06-18T02:12:42.748Z,8.23
2019-06-18T02:15:09.926Z,8.97
2019-06-18T02:17:36.498Z,8.93
2019-06-18T02:20:03.976Z,7.97
2019-06-18T02:22:32.536Z,8.40
2019-06-18T02:24:58.874Z,8.50
2019-06-18T02:27:25.397Z,8.50
2019-06-18T02:29:52.994Z,8.77
2019-06-18T02:32:23.001Z,8.10
2019-06-18T02:34:48.093Z,8.83
2019-06-18T02:37:14.713Z,8.93
2019-06-18T02:39:43.221Z,9.23
2019-06-18T02:42:10.210Z,9.30
2019-06-18T02:44:36.982Z,9.90
2019-06-18T02:47:11.603Z,9.93
2019-06-18T02:49:33.310Z,9.17
2019-06-18T02:51:59.837Z,9.77
2019-06-18T02:54:26.779Z,9.40
2019-06-18T02:56:54.450Z,10.17
2019-06-18T02:59:23.090Z,9.70
2019-06-18T03:02:02.857Z,10.30
2019-06-18T03:04:40.255Z,10.10
2019-06-18T03:07:06.827Z,10.30
2019-06-18T03:09:33.381Z,9.47
2019-06-18T03:12:02.529Z,10.13
2019-06-18T03:14:29.665Z,10.43
2019-06-18T03:16:57.934Z,9.73
2019-06-18T03:19:25.566Z,9.67
2019-06-18T03:21:53.215Z,9.80
2019-06-18T03:24:19.966Z,10.70
2019-06-18T03:26:48.229Z,10.40
2019-06-18T03:29:15.255Z,9.80
2019-06-18T03:31:45.584Z,10.60
2019-06-18T03:34:14.350Z,10.83
2019-06-18T03:36:38.702Z,11.00
2019-06-18T03:39:06.542Z,10.00
2019-06-18T03:41:33.120Z,9.80
2019-06-18T03:44:02.940Z,10.23
2019-06-18T03:46:29.008Z,10.90
2019-06-18T03:48:55.552Z,10.50
2019-06-18T03:51:23.321Z,10.43
2019-06-18T03:53:49.935Z,10.87
2019-06-18T03:56:16.599Z,10.30
2019-06-18T03:58:44.198Z,10.20
2019-06-18T04:01:23.594Z,11.50
2019-06-18T04:03:50.213Z,11.47
2019-06-18T04:06:16.886Z,12.90
2019-06-18T04:08:43.498Z,10.87
2019-06-18T04:11:10.082Z,10.53
2019-06-18T04:13:36.630Z,11.20
2019-06-18T04:16:03.391Z,10.67
2019-06-18T04:18:30.002Z,10.73
2019-06-18T04:20:56.539Z,10.90
2019-06-18T04:23:23.211Z,10.53
2019-06-18T04:25:49.758Z,10.60
2019-06-18T04:28:18.034Z,10.37
2019-06-18T04:30:46.400Z,10.23
2019-06-18T04:33:13.492Z,10.50
2019-06-18T04:35:42.251Z,10.60
2019-06-18T04:38:08.578Z,11.20
2019-06-18T04:40:35.315Z,10.60
2019-06-18T04:43:02.791Z,10.70
2019-06-18T04:45:29.325Z,10.37
2019-06-18T04:47:55.886Z,10.53
2019-06-18T04:50:22.804Z,10.77
2019-06-18T04:52:49.583Z,10.70
2019-06-18T04:55:16.238Z,10.23
2019-06-18T04:57:42.930Z,10.37
2019-06-18T05:00:12.675Z,11.00
2019-06-18T05:02:38.427Z,10.80
2019-06-18T05:05:04.985Z,10.60
2019-06-18T05:07:32.601Z,10.30
2019-06-18T05:09:59.439Z,10.47
2019-06-18T05:12:26.099Z,10.07
2019-06-18T05:14:56.544Z,11.10
2019-06-18T05:17:24.819Z,9.97
2019-06-18T05:19:53.066Z,10.20
2019-06-18T05:22:20.234Z,10.60
2019-06-18T05:24:46.724Z,10.13
2019-06-18T05:27:13.391Z,11.17
2019-06-18T05:29:42.602Z,10.40
2019-06-18T05:32:08.627Z,10.67
2019-06-18T05:34:35.320Z,9.83
2019-06-18T05:37:03.555Z,10.93
2019-06-18T05:39:32.882Z,9.60
2019-06-18T05:41:58.522Z,10.03
2019-06-18T05:44:25.175Z,9.73
2019-06-18T05:46:53.839Z,10.33
2019-06-18T05:49:20.297Z,9.87
2019-06-18T05:51:48.534Z,9.43
2019-06-18T05:54:15.115Z,8.93
2019-06-18T05:56:43.088Z,9.40
2019-06-18T05:59:10.029Z,10.20
2019-06-18T06:01:36.633Z,10.50
2019-06-18T06:04:03.410Z,9.20
2019-06-18T06:06:32.778Z,9.60
2019-06-18T06:08:58.613Z,10.40
2019-06-18T06:11:25.847Z,10.03
2019-06-18T06:13:52.966Z,9.07
2019-06-18T06:16:19.549Z,9.63
2019-06-18T06:18:46.124Z,10.57
2019-06-18T06:21:13.077Z,9.40
2019-06-18T06:23:39.810Z,9.77
2019-06-18T06:26:08.042Z,9.53
2019-06-18T06:28:34.701Z,9.63
2019-06-18T06:31:02.941Z,9.17
2019-06-18T06:33:29.883Z,8.90
2019-06-18T06:35:56.623Z,9.17
2019-06-18T06:38:23.302Z,9.60
2019-06-18T06:40:49.827Z,9.77
2019-06-18T06:43:16.546Z,9.50
2019-06-18T06:45:43.425Z,9.43
2019-06-18T06:48:12.610Z,9.80
2019-06-18T06:50:38.661Z,8.67
2019-06-18T06:53:06.164Z,8.90
2019-06-18T06:55:32.840Z,9.70
2019-06-18T06:57:59.375Z,8.53
2019-06-18T07:00:25.948Z,9.00
2019-06-18T07:02:53.321Z,8.80
2019-06-18T07:05:22.540Z,9.47
2019-06-18T07:07:48.401Z,8.33
2019-06-18T07:10:15.481Z,9.13
2019-06-18T07:12:44.601Z,9.27
2019-06-18T07:15:13.187Z,9.73
2019-06-18T07:17:39.352Z,8.47
2019-06-18T07:20:06.726Z,8.53
2019-06-18T07:22:33.573Z,8.13
2019-06-18T07:25:02.549Z,8.50
2019-06-18T07:27:28.554Z,8.73
2019-06-18T07:29:55.287Z,8.40
2019-06-18T07:32:23.177Z,8.20
2019-06-18T07:34:49.970Z,8.00
2019-06-18T07:37:16.402Z,7.33
2019-06-18T07:39:43.181Z,8.13
2019-06-18T07:42:09.816Z,7.43
2019-06-18T07:44:36.512Z,8.10
2019-06-18T07:47:04.145Z,7.00
2019-06-18T07:49:32.926Z,6.93
2019-06-18T07:51:59.238Z,7.20
2019-06-18T07:54:25.766Z,7.23
2019-06-18T07:56:52.737Z,6.93
2019-06-18T07:59:22.415Z,6.87
2019-06-18T08:01:48.851Z,7.00
2019-06-18T08:04:15.384Z,7.40
2019-06-18T08:06:43.877Z,6.90
2019-06-18T08:09:13.426Z,7.10
2019-06-18T08:11:38.887Z,6.80
2019-06-18T08:14:05.526Z,5.87
2019-06-18T08:16:33.370Z,6.80
2019-06-18T08:19:02.814Z,6.33
2019-06-18T08:21:29.543Z,6.23
2019-06-18T08:23:56.184Z,6.00
2019-06-18T08:26:23.261Z,5.50
2019-06-18T08:28:53.063Z,5.37
2019-06-18T08:31:18.971Z,6.40
2019-06-18T08:33:45.606Z,5.90
2019-06-18T08:36:13.278Z,5.87
2019-06-18T08:38:42.153Z,5.43
2019-06-18T08:41:08.873Z,4.97
2019-06-18T08:43:35.821Z,5.17
2019-06-18T08:46:04.191Z,4.50
2019-06-18T08:48:33.065Z,5.27
2019-06-18T08:50:59.388Z,5.30
2019-06-18T08:53:25.930Z,5.10
2019-06-18T08:55:52.845Z,4.73
2019-06-18T08:58:22.570Z,4.63
2019-06-18T09:00:47.997Z,4.50
2019-06-18T09:03:25.473Z,4.50
2019-06-18T09:05:43.463Z,4.47
2019-06-18T09:08:10.284Z,4.57
2019-06-18T09:10:36.904Z,4.00
2019-06-18T09:13:03.478Z,4.50
2019-06-18T09:15:30.114Z,4.20
2019-06-18T09:17:56.685Z,4.43
2019-06-18T09:20:23.717Z,4.40
2019-06-18T09:22:52.709Z,4.23
2019-06-18T09:25:19.054Z,4.30
2019-06-18T09:27:45.595Z,4.00
2019-06-18T09:30:12.779Z,4.40
2019-06-18T09:32:39.687Z,4.40
2019-06-18T09:35:07.634Z,4.10
2019-06-18T09:37:34.687Z,5.03
2019-06-18T09:40:06.353Z,3.90
2019-06-18T09:42:33.126Z,4.53
2019-06-18T09:44:59.689Z,4.20
2019-06-18T09:47:27.146Z,4.40
2019-06-18T09:49:53.670Z,3.93
2019-06-18T09:52:23.216Z,4.20
2019-06-18T09:54:49.174Z,4.30
2019-06-18T09:57:15.843Z,4.37
2019-06-18T09:59:42.594Z,4.07
2019-06-18T10:02:09.251Z,4.00
2019-06-18T10:04:35.885Z,4.17
2019-06-18T10:07:02.868Z,4.03
2019-06-18T10:09:29.309Z,4.27
2019-06-18T10:11:55.945Z,4.00
2019-06-18T10:14:22.614Z,3.87
2019-06-18T10:16:49.255Z,3.83
2019-06-18T10:19:15.795Z,4.90
2019-06-18T10:21:44.998Z,4.10
2019-06-18T10:24:12.967Z,5.10
2019-06-18T10:26:39.137Z,4.13
2019-06-18T10:29:26.020Z,4.37
2019-06-18T10:31:34.129Z,4.10
2019-06-18T10:34:02.974Z,3.30
2019-06-18T10:36:29.319Z,3.00
2019-06-18T10:38:56.780Z,2.70
2019-06-18T10:41:23.411Z,3.07
2019-06-18T10:43:52.718Z,3.57
2019-06-18T10:46:18.414Z,3.30
2019-06-18T10:48:45.082Z,3.00
2019-06-18T10:51:12.854Z,3.17
2019-06-18T10:53:39.589Z,2.70
2019-06-18T10:56:07.123Z,2.90
2019-06-18T10:58:36.873Z,3.43
2019-06-18T11:01:02.989Z,3.27
2019-06-18T11:03:32.628Z,3.10
2019-06-18T11:06:02.814Z,3.80
2019-06-18T11:08:29.498Z,3.80
2019-06-18T11:10:56.266Z,3.97
2019-06-18T11:13:23.757Z,3.57
2019-06-18T11:15:50.487Z,3.60
2019-06-18T11:18:17.040Z,4.30
2019-06-18T11:20:43.685Z,3.37
2019-06-18T11:23:11.251Z,4.40
2019-06-18T11:25:37.896Z,3.63
2019-06-18T11:28:04.574Z,3.93
2019-06-18T11:30:32.670Z,4.07
2019-06-18T11:32:59.522Z,4.40
2019-06-18T11:35:26.320Z,4.27
2019-06-18T11:37:53.621Z,4.37
2019-06-18T11:40:20.924Z,4.60
2019-06-18T11:42:47.458Z,4.67
2019-06-18T11:45:16.636Z,4.00
2019-06-18T11:47:43.760Z,3.70
2019-06-18T11:50:13.234Z,3.93
2019-06-18T11:52:39.866Z,3.63
2019-06-18T11:55:06.660Z,4.13
2019-06-18T11:57:34.267Z,4.43
2019-06-18T12:00:04.417Z,3.63
2019-06-18T12:02:29.380Z,3.77
2019-06-18T12:04:55.942Z,3.70
2019-06-18T12:07:22.588Z,3.50
2019-06-18T12:09:49.371Z,3.90
2019-06-18T12:12:17.639Z,4.17
2019-06-18T12:14:44.292Z,4.23
2019-06-18T12:17:13.625Z,3.70
2019-06-18T12:19:42.503Z,4.20
2019-06-18T12:22:08.534Z,4.47
2019-06-18T12:24:35.081Z,4.17
2019-06-18T12:27:03.366Z,4.47
2019-06-18T12:29:29.973Z,3.93
2019-06-18T12:31:56.707Z,3.70
2019-06-18T12:34:24.199Z,3.90
2019-06-18T12:36:52.572Z,3.70
2019-06-18T12:39:19.150Z,3.73
2019-06-18T12:41:45.720Z,3.57
2019-06-18T12:44:13.173Z,3.80
2019-06-18T12:46:42.581Z,3.60
2019-06-18T12:49:08.265Z,3.40
2019-06-18T12:51:34.939Z,3.70
2019-06-18T12:54:09.141Z,3.73
2019-06-18T12:56:30.033Z,4.50
2019-06-18T12:58:56.573Z,3.90
2019-06-18T13:01:23.321Z,3.77
2019-06-18T13:03:49.776Z,3.63
2019-06-18T13:06:16.350Z,4.03
2019-06-18T13:08:43.703Z,3.30
2019-06-18T13:11:12.617Z,3.80
2019-06-18T13:13:43.551Z,3.33
2019-06-18T13:16:09.278Z,3.73
2019-06-18T13:18:36.208Z,3.60
2019-06-18T13:21:03.943Z,3.73
2019-06-18T13:23:32.998Z,3.53
2019-06-18T13:25:59.112Z,3.63
2019-06-18T13:28:25.634Z,3.33
2019-06-18T13:30:52.338Z,3.57
2019-06-18T13:33:18.966Z,3.50
2019-06-18T13:35:45.522Z,3.20
2019-06-18T13:38:13.859Z,3.50
2019-06-18T13:40:43.334Z,3.30
2019-06-18T13:43:08.983Z,3.80
2019-06-18T13:45:35.714Z,3.50
2019-06-18T13:48:03.596Z,3.53
2019-06-18T13:50:32.591Z,3.77
2019-06-18T13:52:58.968Z,3.30
2019-06-18T13:55:25.628Z,3.43
2019-06-18T13:57:53.428Z,3.20
2019-06-18T14:00:22.862Z,3.57
2019-06-18T14:02:53.025Z,3.47
2019-06-18T14:05:18.687Z,3.50
2019-06-18T14:07:45.476Z,3.40
2019-06-18T14:10:13.420Z,3.50
2019-06-18T14:12:42.193Z,3.23
2019-06-18T14:15:09.218Z,3.47
2019-06-18T14:17:35.779Z,2.90
2019-06-18T14:20:04.524Z,3.20
2019-06-18T14:22:32.900Z,3.30
2019-06-18T14:25:02.624Z,3.47
2019-06-18T14:27:29.397Z,4.10
2019-06-18T14:29:56.022Z,3.17
2019-06-18T14:32:26.174Z,3.20
2019-06-18T14:34:52.759Z,3.10
2019-06-18T14:37:19.537Z,3.17
2019-06-18T14:39:46.061Z,2.70
2019-06-18T14:42:12.841Z,3.10
2019-06-18T14:44:39.446Z,3.20
2019-06-18T14:47:06.122Z,3.00
2019-06-18T14:49:32.684Z,2.93
2019-06-18T14:51:59.336Z,2.70
2019-06-18T14:54:26.605Z,2.90
2019-06-18T14:56:54.373Z,2.70
2019-06-18T14:59:26.188Z,3.23
2019-06-18T15:01:53.118Z,2.70
2019-06-18T15:04:22.535Z,3.27
2019-06-18T15:06:48.650Z,3.10
2019-06-18T15:09:16.183Z,3.00
2019-06-18T15:11:43.417Z,3.30
2019-06-18T15:14:13.915Z,2.90
2019-06-18T15:16:39.589Z,2.93
2019-06-18T15:19:06.158Z,2.90
2019-06-18T15:21:33.521Z,2.80
2019-06-18T15:24:01.867Z,2.63
2019-06-18T15:26:28.597Z,2.83
2019-06-18T15:28:55.167Z,2.77
2019-06-18T15:31:22.557Z,2.90
2019-06-18T15:33:52.762Z,3.07
2019-06-18T15:36:18.656Z,2.67
2019-06-18T15:38:45.662Z,3.10
2019-06-18T15:41:13.487Z,2.33
2019-06-18T15:43:43.051Z,2.60
2019-06-18T15:46:08.998Z,2.40
2019-06-18T15:48:35.666Z,2.73
2019-06-18T15:51:03.660Z,2.90
2019-06-18T15:53:32.751Z,2.80
2019-06-18T15:55:58.696Z,2.20
2019-06-18T15:58:25.371Z,2.23
2019-06-18T16:01:07.187Z,2.60
2019-06-18T16:03:23.283Z,2.43
2019-06-18T16:05:49.305Z,2.70
2019-06-18T16:08:15.935Z,2.60
2019-06-18T16:10:42.803Z,2.60
2019-06-18T16:13:09.837Z,3.00
2019-06-18T16:15:36.526Z,2.17
2019-06-18T16:18:04.757Z,2.43
2019-06-18T16:20:32.325Z,2.33
2019-06-18T16:23:03.014Z,2.10
2019-06-18T16:25:29.241Z,2.33
2019-06-18T16:27:56.074Z,2.10
2019-06-18T16:30:23.752Z,2.50
2019-06-18T16:32:53.108Z,2.10
2019-06-18T16:35:19.767Z,2.40
2019-06-18T16:37:46.410Z,2.30
2019-06-18T16:40:14.365Z,2.27
2019-06-18T16:42:42.482Z,2.30
2019-06-18T16:45:17.557Z,2.10
2019-06-18T16:47:45.304Z,2.12
2019-06-18T16:50:13.246Z,2.08
2019-06-18T16:52:42.638Z,2.30
2019-06-18T16:55:09.561Z,2.10
2019-06-18T16:57:39.558Z,2.20
2019-06-18T17:00:06.683Z,2.17
2019-06-18T17:02:33.290Z,1.90
2019-06-18T17:05:02.560Z,2.30
2019-06-18T17:07:28.337Z,2.33
2019-06-18T17:09:55.005Z,2.47
2019-06-18T17:12:23.455Z,2.37
2019-06-18T17:14:50.004Z,2.43
2019-06-18T17:17:16.539Z,2.67
2019-06-18T17:19:43.287Z,2.50
2019-06-18T17:22:12.317Z,2.40
2019-06-18T17:24:38.297Z,2.30
2019-06-18T17:27:04.938Z,2.60
2019-06-18T17:29:33.458Z,2.70
2019-06-18T17:32:02.283Z,2.13
2019-06-18T17:34:28.502Z,2.40
2019-06-18T17:36:55.271Z,2.30
2019-06-18T17:39:22.285Z,2.13
2019-06-18T17:41:48.966Z,2.17
2019-06-18T17:44:15.704Z,2.23
2019-06-18T17:46:42.647Z,2.30
2019-06-18T17:49:09.403Z,2.60
2019-06-18T17:51:36.069Z,2.57
2019-06-18T17:54:03.275Z,2.60
2019-06-18T17:56:30.070Z,2.53
2019-06-18T17:58:56.604Z,2.80
2019-06-18T18:01:23.279Z,2.33
2019-06-18T18:03:49.803Z,2.67
2019-06-18T18:06:16.366Z,2.53
2019-06-18T18:08:43.048Z,2.70
2019-06-18T18:11:12.270Z,3.13
2019-06-18T18:13:37.899Z,2.83
2019-06-18T18:16:04.465Z,2.60
2019-06-18T18:18:33.911Z,2.60
2019-06-18T18:20:59.458Z,2.70
2019-06-18T18:23:25.994Z,2.57
2019-06-18T18:25:52.871Z,2.37
2019-06-18T18:28:22.094Z,2.80
2019-06-18T18:30:48.271Z,2.73
2019-06-18T18:33:14.967Z,3.00
2019-06-18T18:35:41.509Z,2.87
2019-06-18T18:38:08.082Z,2.70
2019-06-18T18:40:34.817Z,2.97
2019-06-18T18:43:03.137Z,2.80
2019-06-18T18:45:29.722Z,2.80
2019-06-18T18:47:56.398Z,3.27
2019-06-18T18:50:23.411Z,2.97
2019-06-18T18:52:52.544Z,3.00
2019-06-18T18:55:18.438Z,2.83
2019-06-18T18:57:45.105Z,2.67
2019-06-18T19:00:13.857Z,2.87
2019-06-18T19:02:42.601Z,2.90
2019-06-18T19:05:09.236Z,3.40
2019-06-18T19:07:35.905Z,3.20
2019-06-18T19:10:03.650Z,3.07
2019-06-18T19:12:30.330Z,3.20
2019-06-18T19:14:56.867Z,3.43
2019-06-18T19:17:23.430Z,3.40
2019-06-18T19:19:53.158Z,3.43
2019-06-18T19:22:18.949Z,3.70
2019-06-18T19:24:47.184Z,3.53
2019-06-18T19:27:13.852Z,3.70
2019-06-18T19:29:42.798Z,3.63
2019-06-18T19:32:08.891Z,3.13
2019-06-18T19:34:35.836Z,3.70
2019-06-18T19:37:03.008Z,3.40
2019-06-18T19:39:29.675Z,3.30
2019-06-18T19:41:56.264Z,3.47
2019-06-18T19:44:22.931Z,3.53
2019-06-18T19:46:49.535Z,3.50
2019-06-18T19:49:16.189Z,3.10
2019-06-18T19:51:43.155Z,3.43
2019-06-18T19:54:12.544Z,3.70
2019-06-18T19:56:38.473Z,3.83
2019-06-18T19:59:05.045Z,4.10
2019-06-18T20:01:32.610Z,4.20
2019-06-18T20:03:59.186Z,4.03
2019-06-18T20:06:25.824Z,4.90
2019-06-18T20:09:02.572Z,3.93
2019-06-18T20:11:22.748Z,4.10
2019-06-18T20:13:49.606Z,3.87
2019-06-18T20:16:16.341Z,3.87
2019-06-18T20:18:44.613Z,4.20
2019-06-18T20:21:12.890Z,3.70
2019-06-18T20:23:39.629Z,4.67
2019-06-18T20:26:06.370Z,3.93
2019-06-18T20:28:33.151Z,3.83
2019-06-18T20:31:03.032Z,4.00
2019-06-18T20:33:29.085Z,4.10
2019-06-18T20:35:55.743Z,3.77
2019-06-18T20:38:23.292Z,4.03
2019-06-18T20:40:50.350Z,3.77
2019-06-18T20:43:16.914Z,4.23
2019-06-18T20:45:43.462Z,3.87
2019-06-18T20:48:12.412Z,4.10
2019-06-18T20:50:39.051Z,4.23
2019-06-18T20:53:05.884Z,4.00
2019-06-18T20:55:32.999Z,3.80
2019-06-18T20:58:02.603Z,3.70
2019-06-18T21:00:29.755Z,3.90
2019-06-18T21:02:56.488Z,3.90
2019-06-18T21:05:23.153Z,3.80
2019-06-18T21:07:49.788Z,4.20
2019-06-18T21:10:16.659Z,3.93
2019-06-18T21:12:43.921Z,3.67
2019-06-18T21:15:12.938Z,4.27
2019-06-18T21:17:39.052Z,4.37
2019-06-18T21:20:06.714Z,4.33
2019-06-18T21:22:33.257Z,4.20
2019-06-18T21:25:02.647Z,4.20
2019-06-18T21:27:28.449Z,5.30
2019-06-18T21:29:55.317Z,4.00
2019-06-18T21:32:23.231Z,4.20
2019-06-18T21:34:52.129Z,3.90
2019-06-18T21:37:18.551Z,4.43
2019-06-18T21:39:45.196Z,4.10
2019-06-18T21:42:12.827Z,4.47
2019-06-18T21:44:39.594Z,5.30
2019-06-18T21:47:06.231Z,4.63
2019-06-18T21:49:32.904Z,4.53
2019-06-18T21:51:59.643Z,4.57
2019-06-18T21:54:26.178Z,5.13
2019-06-18T21:56:53.368Z,4.70
2019-06-18T21:59:20.878Z,4.80
2019-06-18T22:01:47.650Z,4.90
2019-06-18T22:04:16.089Z,4.57
2019-06-18T22:06:42.854Z,5.07
2019-06-18T22:09:10.203Z,4.50
2019-06-18T22:11:36.647Z,4.70
2019-06-18T22:14:04.503Z,4.50
2019-06-18T22:16:33.026Z,4.13
2019-06-18T22:19:02.145Z,4.67
2019-06-18T22:21:28.054Z,4.20
2019-06-18T22:23:54.688Z,4.70
2019-06-18T22:26:23.276Z,5.03
2019-06-18T22:28:49.703Z,4.30
2019-06-18T22:31:16.372Z,4.17
2019-06-18T22:33:42.942Z,4.57
2019-06-18T22:36:09.511Z,4.37
2019-06-18T22:38:36.046Z,4.63
2019-06-18T22:41:02.922Z,4.70
2019-06-18T22:43:29.453Z,4.87
2019-06-18T22:45:56.116Z,4.20
2019-06-18T22:48:22.785Z,4.53
2019-06-18T22:50:49.557Z,4.20
2019-06-18T22:53:17.700Z,4.63
2019-06-18T22:55:44.323Z,4.20
2019-06-18T22:58:12.854Z,4.37
2019-06-18T23:00:42.305Z,4.60
2019-06-18T23:03:09.881Z,4.70
2019-06-18T23:05:36.928Z,4.83
2019-06-18T23:08:04.286Z,4.40
2019-06-18T23:10:33.414Z,4.50
2019-06-18T23:12:59.396Z,4.77
2019-06-18T23:15:26.074Z,4.27
2019-06-18T23:17:52.984Z,5.00
2019-06-18T23:20:29.671Z,5.00
2019-06-18T23:22:56.234Z,4.63
2019-06-18T23:25:23.325Z,4.93
2019-06-18T23:27:52.103Z,4.90
2019-06-18T23:30:19.594Z,5.00
2019-06-18T23:32:46.275Z,4.63
2019-06-18T23:35:13.382Z,4.83
2019-06-18T23:37:40.175Z,5.13
2019-06-18T23:40:08.727Z,5.20
2019-06-18T23:42:35.435Z,5.17
2019-06-18T23:45:04.257Z,4.70
2019-06-18T23:47:31.217Z,4.07
2019-06-18T23:49:58.449Z,4.80
2019-06-18T23:52:25.243Z,4.70
2019-06-18T23:54:52.543Z,5.30
2019-06-18T23:57:19.322Z,4.57
2019-06-18T23:59:45.857Z,4.77
